Portada
METAR-TAF:

METAR-TAF

Aeroports :

Nakhon Ratchasima, Tailàndia

latitud: 14-56-58N, longitud: 102-18-45E, altitud: 233 m

Observació

L'informe es va fer fa 7 hores i 46 minuts, a les 11:00 UTC
Vent 5 kt del Sud, variant entre Sud-Est i Sud/Sud-Oest
Temperatura 30°C
Humitat 75%
Pressió 1009 hPa
Visibilitat 10 km o més
Escasses núvols a una alçada de 3000 ft

METAR: VTUQ 261100Z 17005KT 140V200 9999 FEW030 30/25 Q1009 NOSIG

Hora: 01:46 (18:46 UTC)

Pronòstic

L'informe es va fer fa 1 hora i 46 minuts, a les 17:00 UTC
Pronòstic vàlid del 26 a les 18 UTC al 27 a les 18 UTC
Vent 5 kt del Sud/Sud-Oest
Visibilitat: 9000 m
Núvols disperses a una alçada de 3000 ft
Temporalment
l' 27 a les 07 UTC al 27 a les 10 UTC
Vent 15 kt amb direcció variable
Visibilitat: 4500 m
Escasses núvols a una alçada de 1800 ft, Cumulonimbus.
Cel ennuvolat a una alçada de 2500 ft
tempesta, pluja

TAF: VTUQ 261700Z 2618/2718 20005KT 9000 SCT030 TEMPO 2707/2710 VRB15KT 4500 TSRA FEW018CB BKN025

Observacions i pronòstics meteorològics de més de 4000 aeroports (METAR i TAF).

Les estacions disponibles són els punts grocs i vermells al mapa.

Posi el ratolí al punt desitjat per veure el nom de l'estació.

Feu clic per veure les observacions i els pronòstics meteorològics.

Per canviar el mapa: feu clic els botons verds amb una creu de color negre per apropar; al botó verd amb un guió per allunyar la imatge; o en les fletxes verdes per a mapes adjacents.


METAR-TAF: